createdAt,value
2023-03-31T00:02:14.040Z,11.81
2023-03-31T00:04:46.700Z,11.88
2023-03-31T00:07:22.498Z,11.84
2023-03-31T00:10:10.309Z,11.75
2023-03-31T00:12:48.806Z,11.80
2023-03-31T00:15:19.388Z,11.75
2023-03-31T00:17:50.163Z,11.68
2023-03-31T00:20:20.833Z,11.55
2023-03-31T00:22:54.829Z,11.54
2023-03-31T00:25:28.015Z,11.49
2023-03-31T00:27:58.989Z,11.52
2023-03-31T00:30:31.136Z,11.58
2023-03-31T00:33:02.834Z,11.58
2023-03-31T00:35:33.446Z,11.51
2023-03-31T00:38:04.081Z,11.47
2023-03-31T00:40:37.187Z,11.40
2023-03-31T00:43:31.256Z,11.40
2023-03-31T00:46:13.990Z,11.48
2023-03-31T00:48:51.755Z,11.44
2023-03-31T00:51:25.538Z,11.48
2023-03-31T00:54:02.177Z,11.46
2023-03-31T00:56:39.615Z,11.43
2023-03-31T00:59:15.050Z,11.47
2023-03-31T01:01:50.749Z,11.48
2023-03-31T01:04:22.915Z,11.54
2023-03-31T01:07:05.675Z,11.52
2023-03-31T01:09:38.953Z,11.49
2023-03-31T01:12:14.500Z,11.47
2023-03-31T01:14:45.555Z,11.47
2023-03-31T01:17:19.494Z,11.42
2023-03-31T01:20:14.419Z,11.36
2023-03-31T01:23:28.622Z,11.44
2023-03-31T01:26:42.234Z,11.47
2023-03-31T01:29:40.651Z,11.39
2023-03-31T01:32:45.771Z,11.51
2023-03-31T01:36:20.335Z,11.51
2023-03-31T01:39:20.502Z,11.42
2023-03-31T01:42:01.825Z,11.39
2023-03-31T01:44:39.249Z,11.38
2023-03-31T01:47:18.495Z,11.44
2023-03-31T01:49:59.268Z,11.42
2023-03-31T01:52:41.551Z,11.40
2023-03-31T01:55:16.883Z,11.43
2023-03-31T01:57:56.610Z,11.50
2023-03-31T02:00:33.628Z,11.55
2023-03-31T02:03:17.339Z,11.50
2023-03-31T02:05:53.313Z,11.52
2023-03-31T02:08:29.285Z,11.54
2023-03-31T02:11:03.036Z,11.41
2023-03-31T02:13:38.155Z,11.43
2023-03-31T02:16:15.817Z,11.43
2023-03-31T02:18:50.536Z,11.36
2023-03-31T02:21:23.034Z,11.30
2023-03-31T02:23:55.408Z,11.32
2023-03-31T02:26:31.985Z,11.32
2023-03-31T02:29:06.923Z,11.40
2023-03-31T02:31:45.812Z,11.38
2023-03-31T02:34:16.435Z,11.35
2023-03-31T02:36:48.425Z,11.40
2023-03-31T02:39:25.149Z,11.48
2023-03-31T02:41:58.789Z,11.46
2023-03-31T02:44:34.972Z,11.46
2023-03-31T02:47:06.644Z,11.44
2023-03-31T02:49:38.716Z,11.45
2023-03-31T02:52:48.523Z,11.42
2023-03-31T02:55:37.805Z,11.48
2023-03-31T02:58:52.697Z,11.48
2023-03-31T03:01:43.303Z,11.54
2023-03-31T03:04:35.006Z,11.54
2023-03-31T03:07:16.428Z,11.57
2023-03-31T03:10:01.182Z,11.55
2023-03-31T03:12:38.681Z,11.58
2023-03-31T03:15:14.359Z,11.63
2023-03-31T03:17:49.923Z,11.65
2023-03-31T03:20:23.918Z,11.65
2023-03-31T03:22:54.468Z,11.60
2023-03-31T03:25:25.030Z,11.59
2023-03-31T03:27:56.007Z,11.60
2023-03-31T03:30:26.540Z,11.57
2023-03-31T03:32:59.615Z,11.55
2023-03-31T03:35:30.260Z,11.57
2023-03-31T03:38:00.783Z,11.57
2023-03-31T03:40:31.292Z,11.62
2023-03-31T03:43:01.841Z,11.60
2023-03-31T03:45:34.346Z,11.68
2023-03-31T03:48:07.802Z,11.76
2023-03-31T03:50:41.500Z,11.71
2023-03-31T03:53:11.929Z,11.70
2023-03-31T03:55:42.479Z,11.68
2023-03-31T03:58:13.975Z,11.68
2023-03-31T04:00:45.587Z,11.67
2023-03-31T04:03:19.178Z,11.69
2023-03-31T04:05:52.060Z,11.68
2023-03-31T04:08:23.079Z,11.70
2023-03-31T04:10:53.495Z,11.72
2023-03-31T04:13:24.197Z,11.80
2023-03-31T04:15:54.813Z,11.84
2023-03-31T04:18:28.020Z,11.80
2023-03-31T04:21:04.380Z,11.81
2023-03-31T04:23:35.276Z,11.79
2023-03-31T04:26:09.023Z,11.96
2023-03-31T04:28:43.002Z,11.86
2023-03-31T04:31:15.722Z,11.82
2023-03-31T04:33:50.898Z,11.92
2023-03-31T04:36:21.395Z,11.95
2023-03-31T04:38:55.056Z,11.85
2023-03-31T04:41:27.736Z,11.76
2023-03-31T04:43:58.265Z,11.86
2023-03-31T04:46:28.852Z,11.83
2023-03-31T04:49:03.061Z,11.71
2023-03-31T04:51:33.517Z,11.74
2023-03-31T04:54:04.012Z,11.75
2023-03-31T04:56:34.676Z,11.70
2023-03-31T04:59:05.455Z,11.66
2023-03-31T05:01:36.765Z,11.61
2023-03-31T05:04:10.127Z,11.74
2023-03-31T05:06:40.591Z,11.79
2023-03-31T05:09:11.498Z,11.69
2023-03-31T05:11:42.834Z,11.70
2023-03-31T05:14:14.824Z,11.81
2023-03-31T05:16:45.391Z,11.83
2023-03-31T05:19:18.483Z,11.91
2023-03-31T05:21:49.214Z,12.04
2023-03-31T05:24:20.377Z,12.04
2023-03-31T05:26:53.032Z,12.08
2023-03-31T05:29:23.971Z,12.14
2023-03-31T05:31:55.473Z,12.28
2023-03-31T05:34:28.688Z,12.36
2023-03-31T05:36:59.225Z,12.38
2023-03-31T05:39:33.174Z,12.42
2023-03-31T05:42:05.819Z,12.46
2023-03-31T05:44:36.315Z,12.42
2023-03-31T05:47:07.234Z,12.50
2023-03-31T05:49:40.544Z,12.55
2023-03-31T05:52:11.870Z,12.54
2023-03-31T05:54:43.044Z,12.72
2023-03-31T05:57:14.034Z,12.89
2023-03-31T05:59:44.278Z,12.93
2023-03-31T06:02:17.369Z,12.99
2023-03-31T06:04:50.508Z,13.14
2023-03-31T06:07:22.754Z,13.14
2023-03-31T06:09:53.303Z,13.13
2023-03-31T06:12:23.905Z,13.24
2023-03-31T06:14:54.438Z,13.25
2023-03-31T06:17:25.018Z,13.45
2023-03-31T06:20:02.935Z,13.30
2023-03-31T06:22:36.269Z,13.27
2023-03-31T06:25:07.426Z,13.26
2023-03-31T06:27:37.900Z,13.23
2023-03-31T06:30:10.624Z,13.10
2023-03-31T06:32:41.183Z,12.94
2023-03-31T06:35:14.430Z,13.01
2023-03-31T06:37:45.039Z,12.83
2023-03-31T06:40:16.424Z,12.78
2023-03-31T06:42:47.012Z,12.88
2023-03-31T06:45:17.534Z,13.05
2023-03-31T06:47:48.259Z,13.23
2023-03-31T06:50:21.611Z,13.36
2023-03-31T06:52:53.315Z,13.51
2023-03-31T06:55:23.814Z,13.75
2023-03-31T06:57:54.228Z,14.04
2023-03-31T07:00:27.251Z,14.22
2023-03-31T07:02:57.922Z,14.46
2023-03-31T07:05:31.594Z,14.31
2023-03-31T07:08:03.361Z,14.29
2023-03-31T07:10:35.745Z,14.08
2023-03-31T07:13:06.454Z,14.16
2023-03-31T07:15:37.120Z,14.08
2023-03-31T07:18:08.029Z,14.31
2023-03-31T07:20:41.405Z,14.35
2023-03-31T07:23:12.582Z,14.16
2023-03-31T07:25:43.047Z,14.32
2023-03-31T07:28:14.025Z,14.38
2023-03-31T07:30:44.985Z,14.31
2023-03-31T07:33:16.179Z,14.94
2023-03-31T07:35:56.830Z,15.06
2023-03-31T07:38:38.764Z,14.80
2023-03-31T07:41:10.206Z,14.48
2023-03-31T07:43:40.905Z,14.33
2023-03-31T07:46:19.427Z,14.21
2023-03-31T07:48:50.691Z,14.09
2023-03-31T07:51:27.428Z,13.91
2023-03-31T07:53:58.202Z,13.73
2023-03-31T07:56:29.357Z,13.57
2023-03-31T07:59:00.051Z,13.35
2023-03-31T08:01:30.499Z,13.39
2023-03-31T08:04:01.411Z,13.26
2023-03-31T08:06:34.832Z,12.97
2023-03-31T08:09:07.333Z,12.90
2023-03-31T08:11:37.850Z,12.87
2023-03-31T08:14:08.353Z,12.79
2023-03-31T08:16:38.928Z,12.82
2023-03-31T08:19:09.793Z,12.87
2023-03-31T08:21:42.825Z,12.81
2023-03-31T08:24:13.331Z,12.81
2023-03-31T08:26:44.629Z,12.95
2023-03-31T08:29:15.355Z,13.12
2023-03-31T08:31:46.016Z,13.01
2023-03-31T08:34:16.481Z,12.99
2023-03-31T08:36:49.544Z,13.07
2023-03-31T08:39:20.020Z,13.13
2023-03-31T08:41:58.802Z,13.09
2023-03-31T08:44:37.191Z,13.13
2023-03-31T08:47:10.917Z,12.81
2023-03-31T08:49:46.386Z,12.79
2023-03-31T08:52:25.369Z,12.89
2023-03-31T08:55:00.754Z,12.78
2023-03-31T08:57:44.343Z,13.04
2023-03-31T09:00:19.890Z,13.13
2023-03-31T09:02:59.475Z,13.13
2023-03-31T09:05:59.520Z,13.18
2023-03-31T09:08:45.470Z,13.18
2023-03-31T09:11:28.860Z,13.25
2023-03-31T09:14:19.295Z,13.27
2023-03-31T09:16:58.233Z,13.04
2023-03-31T09:19:39.749Z,12.93
2023-03-31T09:22:18.638Z,12.98
2023-03-31T09:25:03.077Z,12.97
2023-03-31T09:27:37.732Z,12.69
2023-03-31T09:30:18.536Z,12.63
2023-03-31T09:32:51.514Z,12.71
2023-03-31T09:35:26.041Z,12.83
2023-03-31T09:37:57.397Z,13.08
2023-03-31T09:40:32.199Z,12.91
2023-03-31T09:43:05.396Z,12.67
2023-03-31T09:45:37.469Z,12.61
2023-03-31T09:48:14.705Z,12.76
2023-03-31T09:50:51.082Z,12.63
2023-03-31T09:53:31.676Z,12.37
2023-03-31T09:56:09.497Z,12.42
2023-03-31T09:58:45.301Z,12.48
2023-03-31T10:01:18.079Z,12.50
2023-03-31T10:03:54.080Z,12.75
2023-03-31T10:06:26.465Z,12.67
2023-03-31T10:09:00.999Z,12.70
2023-03-31T10:11:34.782Z,12.60
2023-03-31T10:14:08.504Z,12.67
2023-03-31T10:16:50.540Z,12.70
2023-03-31T10:19:26.645Z,12.52
2023-03-31T10:22:02.382Z,12.67
2023-03-31T10:24:42.678Z,12.72
2023-03-31T10:27:26.003Z,12.61
2023-03-31T10:29:58.180Z,12.55
2023-03-31T10:32:32.137Z,12.48
2023-03-31T10:35:09.880Z,12.30
2023-03-31T10:37:41.001Z,12.29
2023-03-31T10:40:18.453Z,12.25
2023-03-31T10:43:03.009Z,12.32
2023-03-31T10:45:40.424Z,12.26
2023-03-31T10:48:22.778Z,12.17
2023-03-31T10:50:53.553Z,12.21
2023-03-31T10:53:24.940Z,12.16
2023-03-31T10:56:12.636Z,12.06
2023-03-31T10:59:06.045Z,12.05
2023-03-31T11:01:49.637Z,11.82
2023-03-31T11:04:44.399Z,11.71
2023-03-31T11:07:30.663Z,11.61
2023-03-31T11:10:23.959Z,11.54
2023-03-31T11:13:02.329Z,11.77
2023-03-31T11:15:45.952Z,11.88
2023-03-31T11:18:38.435Z,12.01
2023-03-31T11:21:23.624Z,11.98
2023-03-31T11:24:04.282Z,12.07
2023-03-31T11:26:49.464Z,12.12
2023-03-31T11:29:36.130Z,12.01
2023-03-31T11:32:40.560Z,11.96
2023-03-31T11:35:38.787Z,11.99
2023-03-31T11:38:36.526Z,12.09
2023-03-31T11:41:11.665Z,12.11
2023-03-31T11:43:49.481Z,12.21
2023-03-31T11:46:26.579Z,12.22
2023-03-31T11:49:04.199Z,12.16
2023-03-31T11:51:47.579Z,12.22
2023-03-31T11:54:25.684Z,12.30
2023-03-31T11:56:58.411Z,12.43
2023-03-31T11:59:32.163Z,12.44
2023-03-31T12:02:12.918Z,12.51
2023-03-31T12:04:51.795Z,12.36
2023-03-31T12:07:27.939Z,12.33
2023-03-31T12:10:07.773Z,12.14
2023-03-31T12:12:44.387Z,12.14
2023-03-31T12:15:23.063Z,12.19
2023-03-31T12:18:02.211Z,12.10
2023-03-31T12:20:40.932Z,12.02
2023-03-31T12:23:20.678Z,12.12
2023-03-31T12:25:57.558Z,12.20
2023-03-31T12:28:29.889Z,12.23
2023-03-31T12:31:01.195Z,12.18
2023-03-31T12:33:36.909Z,12.17
2023-03-31T12:36:24.455Z,12.35
2023-03-31T12:39:13.688Z,12.53
2023-03-31T12:41:50.896Z,12.61
2023-03-31T12:44:39.137Z,12.63
2023-03-31T12:47:34.207Z,12.69
2023-03-31T12:50:44.298Z,12.77
2023-03-31T12:53:31.569Z,13.10
2023-03-31T12:56:02.749Z,13.22
2023-03-31T12:58:51.401Z,13.30
2023-03-31T13:01:23.398Z,13.30
2023-03-31T13:03:57.327Z,13.28
2023-03-31T13:06:55.717Z,13.37
2023-03-31T13:09:52.356Z,13.30
2023-03-31T13:12:28.233Z,13.43
2023-03-31T13:15:02.040Z,13.85
2023-03-31T13:17:36.035Z,13.71
2023-03-31T13:20:36.202Z,13.78
2023-03-31T13:23:10.588Z,13.89
2023-03-31T13:25:51.533Z,14.29
2023-03-31T13:28:43.067Z,14.59
2023-03-31T13:31:16.314Z,14.81
2023-03-31T13:33:52.143Z,15.30
2023-03-31T13:37:03.057Z,15.62
2023-03-31T13:39:59.945Z,15.45
2023-03-31T13:43:11.495Z,16.13
2023-03-31T13:45:58.554Z,15.78
2023-03-31T13:48:42.386Z,15.86
2023-03-31T13:51:32.762Z,16.25
2023-03-31T13:54:41.519Z,16.26
2023-03-31T13:57:52.719Z,17.40
2023-03-31T14:00:37.936Z,17.10
2023-03-31T14:03:31.011Z,16.44
2023-03-31T14:06:08.744Z,16.14
2023-03-31T14:08:54.536Z,17.09
2023-03-31T14:11:28.563Z,18.82
2023-03-31T14:14:08.044Z,20.04
2023-03-31T14:16:49.102Z,20.28
2023-03-31T14:19:58.230Z,21.80
2023-03-31T14:22:46.248Z,21.54
2023-03-31T14:25:30.174Z,20.47
2023-03-31T14:28:21.515Z,20.48
2023-03-31T14:31:05.465Z,19.87
2023-03-31T14:33:46.920Z,19.05
2023-03-31T14:36:28.691Z,19.03
2023-03-31T14:39:06.696Z,18.26
2023-03-31T14:41:38.178Z,17.53
2023-03-31T14:44:11.123Z,16.70
2023-03-31T14:46:42.474Z,16.17
2023-03-31T14:49:25.564Z,15.81
2023-03-31T14:51:57.911Z,15.66
2023-03-31T14:54:28.368Z,15.32
2023-03-31T14:57:03.282Z,15.26
2023-03-31T14:59:37.629Z,15.69
2023-03-31T15:02:10.174Z,15.80
2023-03-31T15:04:48.306Z,15.95
2023-03-31T15:07:20.357Z,15.47
2023-03-31T15:09:54.258Z,15.13
2023-03-31T15:12:26.481Z,14.93
2023-03-31T15:15:01.997Z,14.70
2023-03-31T15:17:35.503Z,14.71
2023-03-31T15:20:31.769Z,14.50
2023-03-31T15:23:25.063Z,14.23
2023-03-31T15:26:02.121Z,13.95
2023-03-31T15:28:43.032Z,13.92
2023-03-31T15:31:13.777Z,13.62
2023-03-31T15:33:44.434Z,14.40
2023-03-31T15:36:18.191Z,16.36
2023-03-31T15:38:48.972Z,17.16
2023-03-31T15:41:22.460Z,17.65
2023-03-31T15:44:07.584Z,17.89
2023-03-31T15:47:01.193Z,16.62
2023-03-31T15:49:33.101Z,15.40
2023-03-31T15:52:06.365Z,15.39
2023-03-31T15:54:40.311Z,17.07
2023-03-31T15:57:13.786Z,17.50
2023-03-31T15:59:55.180Z,16.68
2023-03-31T16:02:29.350Z,16.53
2023-03-31T16:05:06.167Z,15.72
2023-03-31T16:07:47.281Z,15.24
2023-03-31T16:10:23.414Z,14.91
2023-03-31T16:12:57.820Z,14.44
2023-03-31T16:15:36.976Z,14.25
2023-03-31T16:18:13.554Z,14.20
2023-03-31T16:20:49.801Z,13.93
2023-03-31T16:23:27.353Z,14.09
2023-03-31T16:25:58.556Z,14.25
2023-03-31T16:28:32.284Z,14.29
2023-03-31T16:31:05.416Z,14.32
2023-03-31T16:33:59.624Z,14.29
2023-03-31T16:36:30.216Z,14.24
2023-03-31T16:39:03.416Z,14.14
2023-03-31T16:41:34.596Z,14.03
2023-03-31T16:44:06.548Z,13.94
2023-03-31T16:46:37.286Z,13.93
2023-03-31T16:49:10.369Z,13.89
2023-03-31T16:51:40.923Z,13.81
2023-03-31T16:54:11.877Z,13.84
2023-03-31T16:56:42.135Z,13.80
2023-03-31T16:59:12.557Z,13.73
2023-03-31T17:01:43.229Z,13.77
2023-03-31T17:04:16.284Z,13.63
2023-03-31T17:06:47.738Z,13.38
2023-03-31T17:09:18.199Z,13.25
2023-03-31T17:11:49.182Z,13.14
2023-03-31T17:14:19.335Z,12.98
2023-03-31T17:16:50.223Z,12.88
2023-03-31T17:19:23.306Z,12.90
2023-03-31T17:21:55.291Z,12.86
2023-03-31T17:24:25.946Z,12.78
2023-03-31T17:26:56.798Z,12.69
2023-03-31T17:29:27.487Z,12.57
2023-03-31T17:31:58.028Z,12.51
2023-03-31T17:34:31.501Z,12.42
2023-03-31T17:37:02.682Z,12.22
2023-03-31T17:39:33.345Z,12.17
2023-03-31T17:42:04.603Z,12.16
2023-03-31T17:44:35.186Z,12.13
2023-03-31T17:47:06.016Z,12.13
2023-03-31T17:49:39.402Z,12.17
2023-03-31T17:52:09.959Z,12.24
2023-03-31T17:54:40.774Z,12.12
2023-03-31T17:57:11.585Z,12.01
2023-03-31T17:59:42.378Z,11.99
2023-03-31T18:02:16.576Z,11.97
2023-03-31T18:04:49.853Z,11.97
2023-03-31T18:07:23.404Z,11.97
2023-03-31T18:09:54.288Z,11.97
2023-03-31T18:12:25.018Z,12.08
2023-03-31T18:14:55.706Z,12.10
2023-03-31T18:17:29.215Z,12.07
2023-03-31T18:20:04.173Z,11.96
2023-03-31T18:22:35.822Z,11.90
2023-03-31T18:25:06.739Z,12.01
2023-03-31T18:27:37.460Z,12.14
2023-03-31T18:30:10.109Z,12.04
2023-03-31T18:32:40.740Z,12.07
2023-03-31T18:35:14.538Z,12.05
2023-03-31T18:37:47.451Z,12.10
2023-03-31T18:40:18.404Z,11.99
2023-03-31T18:42:49.011Z,12.02
2023-03-31T18:45:19.788Z,11.96
2023-03-31T18:47:51.009Z,11.88
2023-03-31T18:50:24.494Z,11.85
2023-03-31T18:52:55.040Z,11.90
2023-03-31T18:55:26.436Z,11.84
2023-03-31T18:57:57.070Z,11.75
2023-03-31T19:00:27.607Z,11.77
2023-03-31T19:02:58.433Z,11.66
2023-03-31T19:05:33.297Z,11.64
2023-03-31T19:08:04.863Z,11.55
2023-03-31T19:10:36.716Z,11.43
2023-03-31T19:13:07.917Z,11.41
2023-03-31T19:15:38.922Z,11.37
2023-03-31T19:18:09.136Z,11.41
2023-03-31T19:20:42.288Z,11.22
2023-03-31T19:23:12.847Z,11.21
2023-03-31T19:25:43.398Z,11.35
2023-03-31T19:28:18.615Z,11.27
2023-03-31T19:30:51.986Z,11.30
2023-03-31T19:33:23.887Z,11.17
2023-03-31T19:35:58.012Z,11.09
2023-03-31T19:38:32.296Z,11.16
2023-03-31T19:41:04.249Z,11.13
2023-03-31T19:43:35.717Z,11.09
2023-03-31T19:46:06.706Z,11.07
2023-03-31T19:48:37.993Z,11.08
2023-03-31T19:51:14.061Z,11.05
2023-03-31T19:53:44.625Z,10.98
2023-03-31T19:56:17.576Z,11.17
2023-03-31T19:58:50.374Z,11.28
2023-03-31T20:01:24.051Z,11.23
2023-03-31T20:03:56.258Z,11.28
2023-03-31T20:06:32.072Z,11.22
2023-03-31T20:09:06.475Z,11.09
2023-03-31T20:11:37.374Z,11.10
2023-03-31T20:14:08.367Z,11.13
2023-03-31T20:16:39.016Z,11.09
2023-03-31T20:19:09.674Z,11.07
2023-03-31T20:21:43.382Z,11.08
2023-03-31T20:24:20.852Z,11.20
2023-03-31T20:26:52.097Z,11.24
2023-03-31T20:29:24.337Z,11.15
2023-03-31T20:31:55.638Z,11.05
2023-03-31T20:34:27.779Z,10.95
2023-03-31T20:37:00.998Z,10.95
2023-03-31T20:39:31.539Z,10.94
2023-03-31T20:42:02.078Z,10.91
2023-03-31T20:44:32.638Z,10.91
2023-03-31T20:47:04.120Z,10.99
2023-03-31T20:49:34.699Z,11.02
2023-03-31T20:52:08.447Z,10.91
2023-03-31T20:54:39.270Z,10.92
2023-03-31T20:57:09.878Z,10.88
2023-03-31T20:59:40.704Z,10.90
2023-03-31T21:02:13.413Z,10.93
2023-03-31T21:04:43.988Z,10.89
2023-03-31T21:07:17.201Z,10.91
2023-03-31T21:09:47.965Z,10.90
2023-03-31T21:12:19.704Z,10.86
2023-03-31T21:14:50.284Z,10.78
2023-03-31T21:17:23.583Z,10.78
2023-03-31T21:19:54.048Z,10.79
2023-03-31T21:22:27.670Z,10.86
2023-03-31T21:24:58.298Z,10.88
2023-03-31T21:27:28.914Z,10.79
2023-03-31T21:29:59.430Z,10.79
2023-03-31T21:32:32.791Z,10.77
2023-03-31T21:35:03.245Z,10.76
2023-03-31T21:37:36.788Z,10.82
2023-03-31T21:40:08.705Z,10.66
2023-03-31T21:42:39.342Z,10.67
2023-03-31T21:45:12.487Z,10.58
2023-03-31T21:47:43.137Z,10.52
2023-03-31T21:50:14.544Z,10.50
2023-03-31T21:52:47.669Z,10.47
2023-03-31T21:55:19.195Z,10.45
2023-03-31T21:57:49.683Z,10.34
2023-03-31T22:00:20.808Z,10.25
2023-03-31T22:02:53.827Z,10.19
2023-03-31T22:05:29.091Z,10.18
2023-03-31T22:08:02.417Z,10.13
2023-03-31T22:10:33.075Z,10.17
2023-03-31T22:13:03.631Z,10.04
2023-03-31T22:15:34.520Z,10.05
2023-03-31T22:18:05.058Z,10.00
2023-03-31T22:20:35.505Z,10.01
2023-03-31T22:23:09.283Z,10.10
2023-03-31T22:25:39.754Z,10.20
2023-03-31T22:28:10.810Z,10.22
2023-03-31T22:30:41.067Z,10.19
2023-03-31T22:33:11.526Z,10.18
2023-03-31T22:35:42.106Z,10.26
2023-03-31T22:38:16.870Z,10.29
2023-03-31T22:40:47.378Z,10.26
2023-03-31T22:43:17.907Z,10.37
2023-03-31T22:45:48.482Z,10.30
2023-03-31T22:48:19.649Z,10.22
2023-03-31T22:50:50.347Z,10.17
2023-03-31T22:53:23.588Z,10.10
2023-03-31T22:55:54.759Z,10.08
2023-03-31T22:58:25.657Z,10.09
2023-03-31T23:01:00.049Z,10.11
2023-03-31T23:03:31.000Z,10.18
2023-03-31T23:06:06.333Z,10.17
2023-03-31T23:08:39.946Z,10.24
2023-03-31T23:11:12.717Z,10.27
2023-03-31T23:13:43.412Z,10.32
2023-03-31T23:16:19.208Z,10.31
2023-03-31T23:18:52.042Z,10.41
2023-03-31T23:21:25.856Z,10.41
2023-03-31T23:24:01.772Z,10.33
2023-03-31T23:26:35.491Z,10.29
2023-03-31T23:29:06.577Z,10.25
2023-03-31T23:31:37.018Z,10.32
2023-03-31T23:34:07.401Z,10.31
2023-03-31T23:36:37.832Z,10.30
2023-03-31T23:39:11.060Z,10.26
2023-03-31T23:41:41.467Z,10.24
2023-03-31T23:44:12.290Z,10.22
2023-03-31T23:46:44.471Z,10.23
2023-03-31T23:49:15.502Z,10.26
2023-03-31T23:51:46.125Z,10.25
2023-03-31T23:54:19.318Z,10.30
2023-03-31T23:56:49.813Z,10.26
2023-03-31T23:59:20.641Z,10.19
